Time;durP1;ratioP1;P1;durP2;ratioP2;P2;SDS_P1;SDS_P2;PMS_P1;PMS_P2;Temp;Humidity;BMP_temperature;BMP_pressure;BME280_temperature;BME280_humidity;BME280_pressure;Samples;Min_cycle;Max_cycle;Signal;HPM_P1;HPM_P2
2021/05/10 00:01:22;;;;;;;8.80;7.83;;;;;;;;;;5022851;28;21133;-94
2021/05/10 00:03:48;;;;;;;7.93;7.13;;;;;;;;;;5021992;28;20468;-95
2021/05/10 00:06:15;;;;;;;9.27;8.47;;;;;;;;;;5023897;28;20504;-94
2021/05/10 00:08:41;;;;;;;9.20;8.30;;;;;;;;;;5020988;28;20494;-94
2021/05/10 00:11:07;;;;;;;10.40;8.30;;;;;;;;;;5023632;28;20451;-94
2021/05/10 00:13:34;;;;;;;8.70;7.87;;;;;;;;;;5019267;28;20456;-95
2021/05/10 00:16:01;;;;;;;9.97;8.90;;;;;;;;;;5022940;28;20466;-94
2021/05/10 00:18:27;;;;;;;9.07;7.77;;;;;;;;;;5018438;28;20506;-95
2021/05/10 00:20:53;;;;;;;7.57;6.87;;;;;;;;;;5021275;28;21386;-94
2021/05/10 00:23:19;;;;;;;10.03;8.30;;;;;;;;;;5019765;28;20458;-96
2021/05/10 00:25:45;;;;;;;10.83;8.80;;;;;;;;;;5022551;28;20478;-94
2021/05/10 00:28:12;;;;;;;8.60;7.70;;;;;;;;;;5018829;28;20454;-94
2021/05/10 00:30:39;;;;;;;8.70;7.90;;;;;;;;;;5021152;28;20471;-94
2021/05/10 00:33:06;;;;;;;10.90;7.70;;;;;;;;;;5022908;28;20459;-95
2021/05/10 00:35:32;;;;;;;9.33;8.43;;;;;;;;;;5020938;28;20459;-94
2021/05/10 00:37:58;;;;;;;9.80;7.50;;;;;;;;;;5017284;28;20531;-94
2021/05/10 00:40:25;;;;;;;10.73;8.90;;;;;;;;;;5017003;28;21096;-94
2021/05/10 00:42:51;;;;;;;9.27;8.37;;;;;;;;;;5021864;28;20456;-95
2021/05/10 00:45:17;;;;;;;10.20;8.83;;;;;;;;;;5019481;28;20472;-95
2021/05/10 00:47:44;;;;;;;9.70;8.70;;;;;;;;;;5021203;28;21118;-95
2021/05/10 00:50:12;;;;;;;10.20;9.20;;;;;;;;;;5018454;28;20460;-95
2021/05/10 00:52:38;;;;;;;11.97;8.23;;;;;;;;;;5021026;28;20481;-95
2021/05/10 00:55:05;;;;;;;9.30;8.30;;;;;;;;;;5019290;28;20937;-95
2021/05/10 00:57:33;;;;;;;12.93;9.87;;;;;;;;;;5012794;28;20514;-95
2021/05/10 00:59:59;;;;;;;10.43;8.20;;;;;;;;;;5018411;28;20487;-96
2021/05/10 01:02:25;;;;;;;11.13;9.10;;;;;;;;;;5021517;28;20487;-95
2021/05/10 01:04:51;;;;;;;12.70;9.47;;;;;;;;;;5020315;28;20502;-94
2021/05/10 01:07:18;;;;;;;11.23;10.03;;;;;;;;;;5022903;28;20451;-95
2021/05/10 01:09:44;;;;;;;13.23;9.27;;;;;;;;;;5019166;28;20462;-96
2021/05/10 01:12:11;;;;;;;10.00;9.00;;;;;;;;;;5021515;28;20448;-95
2021/05/10 01:14:37;;;;;;;10.50;9.47;;;;;;;;;;5005885;28;20456;-95
2021/05/10 01:17:03;;;;;;;11.10;9.63;;;;;;;;;;5014192;28;20466;-96
2021/05/10 01:19:30;;;;;;;10.00;9.00;;;;;;;;;;5023179;28;20847;-95
2021/05/10 01:21:58;;;;;;;10.47;9.43;;;;;;;;;;5020623;28;20454;-96
2021/05/10 01:24:25;;;;;;;9.27;8.30;;;;;;;;;;5003611;28;20455;-95
2021/05/10 01:26:51;;;;;;;10.23;9.27;;;;;;;;;;5020018;28;20463;-96
2021/05/10 01:29:18;;;;;;;8.73;7.93;;;;;;;;;;5022186;28;20458;-95
2021/05/10 01:31:44;;;;;;;9.70;8.33;;;;;;;;;;5019829;28;20472;-95
2021/05/10 01:34:10;;;;;;;10.83;9.60;;;;;;;;;;5022336;28;20455;-96
2021/05/10 01:36:37;;;;;;;9.50;8.60;;;;;;;;;;5020194;28;20463;-95
2021/05/10 01:39:03;;;;;;;9.70;8.80;;;;;;;;;;5021689;28;20451;-94
2021/05/10 01:41:30;;;;;;;11.63;8.97;;;;;;;;;;5017694;28;20453;-95
2021/05/10 01:43:56;;;;;;;9.60;7.80;;;;;;;;;;5023319;28;20489;-95
2021/05/10 01:46:22;;;;;;;7.87;7.07;;;;;;;;;;5018091;28;20470;-95
2021/05/10 01:48:49;;;;;;;10.63;9.53;;;;;;;;;;5022280;28;20488;-95
2021/05/10 01:51:15;;;;;;;9.97;9.00;;;;;;;;;;5020027;28;20445;-95
2021/05/10 01:53:41;;;;;;;11.30;9.27;;;;;;;;;;5016861;28;20490;-95
2021/05/10 01:56:07;;;;;;;8.90;8.00;;;;;;;;;;5021268;28;20459;-95
2021/05/10 01:58:34;;;;;;;7.47;6.77;;;;;;;;;;5020444;28;20461;-95
2021/05/10 02:01:00;;;;;;;11.23;10.13;;;;;;;;;;5017342;28;20510;-96
2021/05/10 02:03:26;;;;;;;9.70;8.70;;;;;;;;;;5018401;28;20455;-95
2021/05/10 02:05:52;;;;;;;9.67;8.67;;;;;;;;;;5022866;28;20453;-96
2021/05/10 02:08:18;;;;;;;12.43;9.60;;;;;;;;;;5020009;28;20462;-95
2021/05/10 02:10:46;;;;;;;13.20;10.30;;;;;;;;;;5021324;28;20452;-95
2021/05/10 02:13:12;;;;;;;11.07;9.33;;;;;;;;;;5015184;28;20446;-95
2021/05/10 02:15:40;;;;;;;13.90;9.73;;;;;;;;;;5028319;28;20452;-95
2021/05/10 02:18:07;;;;;;;11.43;9.30;;;;;;;;;;5024365;28;20457;-95
2021/05/10 02:20:33;;;;;;;13.50;9.43;;;;;;;;;;5017857;28;20500;-95
2021/05/10 02:23:00;;;;;;;11.37;9.83;;;;;;;;;;5023021;28;20513;-95
2021/05/10 02:25:27;;;;;;;10.40;9.17;;;;;;;;;;5024315;28;20456;-96
2021/05/10 02:27:53;;;;;;;12.40;9.90;;;;;;;;;;5014990;28;20449;-95
2021/05/10 02:30:20;;;;;;;9.43;8.10;;;;;;;;;;5025348;28;20531;-95
2021/05/10 02:32:47;;;;;;;9.50;8.50;;;;;;;;;;5020438;28;20449;-94
2021/05/10 02:35:14;;;;;;;11.83;9.70;;;;;;;;;;5023053;28;20444;-95
2021/05/10 02:37:40;;;;;;;9.80;8.80;;;;;;;;;;5024573;28;20444;-95
2021/05/10 02:40:07;;;;;;;13.13;9.67;;;;;;;;;;5023419;28;20498;-94
2021/05/10 02:42:33;;;;;;;12.67;8.97;;;;;;;;;;5025302;28;20449;-95
2021/05/10 02:44:59;;;;;;;11.67;9.93;;;;;;;;;;5023188;28;20459;-95
2021/05/10 02:47:25;;;;;;;13.17;10.10;;;;;;;;;;5025759;28;20453;-94
2021/05/10 02:49:52;;;;;;;10.27;9.10;;;;;;;;;;5022658;28;20479;-95
2021/05/10 02:52:18;;;;;;;10.00;8.60;;;;;;;;;;5025587;28;20806;-95
2021/05/10 02:54:44;;;;;;;10.23;9.20;;;;;;;;;;5021769;28;20465;-95
2021/05/10 02:57:10;;;;;;;10.47;9.03;;;;;;;;;;5024650;28;20474;-94
2021/05/10 02:59:36;;;;;;;9.83;8.83;;;;;;;;;;5022883;28;20555;-95
2021/05/10 03:02:02;;;;;;;11.27;9.90;;;;;;;;;;5025220;28;20496;-95
2021/05/10 03:04:28;;;;;;;10.17;9.10;;;;;;;;;;5021110;28;20456;-95
2021/05/10 03:06:55;;;;;;;9.50;8.30;;;;;;;;;;5023316;28;20513;-95
2021/05/10 03:09:21;;;;;;;11.87;9.70;;;;;;;;;;5021938;28;20453;-96
2021/05/10 03:11:47;;;;;;;11.20;10.10;;;;;;;;;;5015482;28;20535;-96
2021/05/10 03:14:13;;;;;;;11.33;10.10;;;;;;;;;;5025582;28;20483;-95
2021/05/10 03:16:39;;;;;;;11.53;8.77;;;;;;;;;;5020526;28;20460;-95
2021/05/10 03:19:09;;;;;;;10.33;9.23;;;;;;;;;;5025987;28;20457;-95
2021/05/10 03:21:36;;;;;;;10.90;9.80;;;;;;;;;;5023085;28;20455;-95
2021/05/10 03:24:03;;;;;;;11.73;9.90;;;;;;;;;;5024732;28;20459;-95
2021/05/10 03:26:30;;;;;;;15.40;9.60;;;;;;;;;;5021344;28;20448;-94
2021/05/10 03:28:56;;;;;;;14.30;10.40;;;;;;;;;;5024775;28;20457;-96
2021/05/10 03:31:22;;;;;;;13.60;10.57;;;;;;;;;;5023709;28;20472;-95
2021/05/10 03:33:48;;;;;;;13.30;10.80;;;;;;;;;;5026149;28;20487;-95
2021/05/10 03:36:14;;;;;;;12.13;10.13;;;;;;;;;;5024267;28;20452;-96
2021/05/10 03:38:40;;;;;;;11.30;10.00;;;;;;;;;;5026937;28;20454;-96
2021/05/10 03:41:07;;;;;;;12.67;9.90;;;;;;;;;;5023929;28;20965;-94
2021/05/10 03:43:33;;;;;;;11.73;10.10;;;;;;;;;;5016907;28;20614;-94
2021/05/10 03:45:59;;;;;;;11.50;10.30;;;;;;;;;;5020325;28;20575;-94
2021/05/10 03:48:25;;;;;;;12.27;10.10;;;;;;;;;;5024025;28;20462;-94
2021/05/10 03:50:51;;;;;;;15.93;12.20;;;;;;;;;;5022290;28;20597;-93
2021/05/10 03:53:17;;;;;;;12.90;10.87;;;;;;;;;;5023658;28;20809;-95
2021/05/10 03:55:43;;;;;;;14.03;11.70;;;;;;;;;;5024822;28;20460;-94
2021/05/10 03:58:10;;;;;;;17.50;11.47;;;;;;;;;;5021775;28;20486;-95
2021/05/10 04:00:36;;;;;;;15.30;12.10;;;;;;;;;;5024384;28;20507;-95
2021/05/10 04:03:03;;;;;;;16.40;11.67;;;;;;;;;;5022337;28;20449;-93
2021/05/10 04:05:54;;;;;;;16.13;12.37;;;;;;;;;;5024656;28;20528;-96
2021/05/10 04:08:41;;;;;;;16.77;12.73;;;;;;;;;;5021469;28;20515;-94
2021/05/10 04:11:10;;;;;;;15.10;11.80;;;;;;;;;;5023178;28;20456;-95
2021/05/10 04:13:41;;;;;;;15.77;11.60;;;;;;;;;;5021901;28;20523;-95
2021/05/10 04:16:07;;;;;;;12.80;11.50;;;;;;;;;;5015340;28;20478;-95
2021/05/10 04:18:34;;;;;;;12.87;11.57;;;;;;;;;;5021451;28;20457;-95
2021/05/10 04:21:00;;;;;;;12.77;10.63;;;;;;;;;;5024327;28;20500;-95
2021/05/10 04:23:26;;;;;;;13.37;11.37;;;;;;;;;;5021517;28;20486;-95
2021/05/10 04:25:53;;;;;;;11.17;9.97;;;;;;;;;;5024534;28;20456;-94
2021/05/10 04:28:20;;;;;;;12.10;10.93;;;;;;;;;;5022228;28;20455;-94
2021/05/10 04:30:50;;;;;;;13.27;10.47;;;;;;;;;;5024745;28;20449;-96
2021/05/10 04:33:16;;;;;;;11.70;10.50;;;;;;;;;;5022035;28;20454;-93
2021/05/10 04:35:42;;;;;;;13.03;10.70;;;;;;;;;;5023660;28;20479;-95
2021/05/10 04:38:11;;;;;;;12.73;11.40;;;;;;;;;;5017644;28;20464;-95
2021/05/10 04:40:38;;;;;;;12.57;11.00;;;;;;;;;;5017446;28;20516;-96
2021/05/10 04:43:04;;;;;;;11.50;10.20;;;;;;;;;;5026214;28;20441;-96
2021/05/10 04:45:30;;;;;;;12.97;11.67;;;;;;;;;;5030787;28;20471;-95
2021/05/10 04:47:57;;;;;;;14.30;12.20;;;;;;;;;;5021872;28;20460;-93
2021/05/10 04:50:23;;;;;;;18.67;15.20;;;;;;;;;;5016445;28;20467;-92
2021/05/10 04:52:49;;;;;;;17.67;14.17;;;;;;;;;;5020528;28;20451;-93
2021/05/10 04:55:15;;;;;;;13.77;12.17;;;;;;;;;;5020067;28;20468;-94
2021/05/10 04:57:41;;;;;;;13.03;11.43;;;;;;;;;;5018188;28;20454;-93
2021/05/10 05:00:09;;;;;;;15.53;13.67;;;;;;;;;;5014276;28;20493;-94
2021/05/10 05:02:35;;;;;;;14.40;12.17;;;;;;;;;;5011896;28;20469;-93
2021/05/10 05:05:02;;;;;;;14.73;13.23;;;;;;;;;;5016539;28;20466;-94
2021/05/10 05:07:28;;;;;;;15.50;12.37;;;;;;;;;;5021344;28;20454;-95
2021/05/10 05:09:54;;;;;;;13.23;11.50;;;;;;;;;;5016606;28;20467;-95
2021/05/10 05:12:20;;;;;;;13.00;11.60;;;;;;;;;;5021040;28;20454;-94
2021/05/10 05:14:46;;;;;;;12.73;11.20;;;;;;;;;;5019207;28;20813;-95
2021/05/10 05:17:12;;;;;;;14.50;11.07;;;;;;;;;;5024180;28;20463;-94
2021/05/10 05:19:38;;;;;;;17.40;12.03;;;;;;;;;;5018342;28;20491;-94
2021/05/10 05:22:06;;;;;;;13.77;11.43;;;;;;;;;;5016484;28;20459;-93
2021/05/10 05:24:32;;;;;;;14.40;11.83;;;;;;;;;;5013074;28;20456;-94
2021/05/10 05:26:58;;;;;;;11.80;10.40;;;;;;;;;;5019778;28;20452;-94
2021/05/10 05:29:24;;;;;;;15.20;11.40;;;;;;;;;;5019765;28;20450;-93
2021/05/10 05:31:51;;;;;;;12.33;10.97;;;;;;;;;;5017852;28;20482;-94
2021/05/10 05:34:17;;;;;;;12.40;10.27;;;;;;;;;;5020959;28;20452;-93
2021/05/10 05:36:42;;;;;;;12.07;10.87;;;;;;;;;;5019883;28;20463;-93
2021/05/10 05:39:09;;;;;;;13.90;12.43;;;;;;;;;;5022667;28;20456;-94
2021/05/10 05:41:35;;;;;;;15.67;12.17;;;;;;;;;;5020694;28;20578;-94
2021/05/10 05:44:02;;;;;;;12.90;11.63;;;;;;;;;;5021333;28;20539;-93
2021/05/10 05:46:30;;;;;;;12.30;10.43;;;;;;;;;;5004828;28;20467;-92
2021/05/10 05:48:56;;;;;;;14.23;10.20;;;;;;;;;;5018535;28;20523;-96
2021/05/10 05:51:23;;;;;;;12.83;10.03;;;;;;;;;;5016404;28;20494;-93
2021/05/10 05:53:51;;;;;;;11.47;10.23;;;;;;;;;;5021928;28;20451;-94
2021/05/10 05:56:18;;;;;;;11.17;9.50;;;;;;;;;;5018967;28;20455;-95
2021/05/10 05:58:44;;;;;;;12.17;10.53;;;;;;;;;;5022173;28;20487;-92
2021/05/10 06:01:10;;;;;;;12.53;10.10;;;;;;;;;;5010655;28;20526;-93
2021/05/10 06:03:36;;;;;;;11.80;10.70;;;;;;;;;;5021829;28;20451;-93
2021/05/10 06:06:02;;;;;;;14.77;10.37;;;;;;;;;;5019803;28;20482;-94
2021/05/10 06:08:29;;;;;;;13.10;9.97;;;;;;;;;;5020074;28;21273;-94
2021/05/10 06:10:55;;;;;;;11.43;10.33;;;;;;;;;;5019694;28;20459;-94
2021/05/10 06:13:22;;;;;;;15.33;10.03;;;;;;;;;;5018376;28;20467;-95
2021/05/10 06:15:48;;;;;;;15.57;12.57;;;;;;;;;;5022292;28;20458;-96
2021/05/10 06:18:14;;;;;;;14.83;10.37;;;;;;;;;;5019138;28;20807;-95
2021/05/10 06:20:40;;;;;;;11.77;10.40;;;;;;;;;;5024195;28;20475;-96
2021/05/10 06:23:06;;;;;;;12.40;9.57;;;;;;;;;;5018314;28;20530;-95
2021/05/10 06:25:35;;;;;;;10.37;9.33;;;;;;;;;;5023004;28;20460;-96
2021/05/10 06:28:01;;;;;;;10.23;9.23;;;;;;;;;;5018648;28;20482;-95
2021/05/10 06:30:28;;;;;;;11.07;9.80;;;;;;;;;;5021040;28;20455;-96
2021/05/10 06:32:55;;;;;;;13.93;8.23;;;;;;;;;;5021400;28;20460;-96
2021/05/10 06:35:21;;;;;;;10.03;8.10;;;;;;;;;;5021806;28;20989;-95
2021/05/10 06:37:47;;;;;;;10.13;9.13;;;;;;;;;;5018976;28;20448;-95
2021/05/10 06:40:13;;;;;;;10.97;9.93;;;;;;;;;;5021070;28;20638;-96
2021/05/10 06:42:39;;;;;;;10.93;9.90;;;;;;;;;;5021060;28;20458;-96
2021/05/10 06:48:07;;;;;;;11.53;9.17;;;;;;;;;;5175658;23;20503;-95
2021/05/10 06:50:33;;;;;;;11.23;9.03;;;;;;;;;;5017152;28;21833;-95
2021/05/10 06:52:59;;;;;;;13.63;8.90;;;;;;;;;;5016401;28;20464;-95
2021/05/10 06:55:36;;;;;;;9.10;8.30;;;;;;;;;;5009455;28;20465;-96
2021/05/10 06:58:08;;;;;;;10.17;8.60;;;;;;;;;;5023367;28;20844;-95
2021/05/10 07:00:34;;;;;;;11.23;8.57;;;;;;;;;;5031952;28;20491;-96
2021/05/10 07:03:00;;;;;;;18.23;8.00;;;;;;;;;;5041923;28;20759;-96
2021/05/10 07:05:37;;;;;;;11.13;8.30;;;;;;;;;;5032752;28;20557;-96
2021/05/10 07:08:09;;;;;;;8.43;7.70;;;;;;;;;;5029204;28;20460;-96
2021/05/10 07:10:35;;;;;;;11.67;9.27;;;;;;;;;;5007702;28;20565;-96
2021/05/10 07:13:01;;;;;;;9.90;8.53;;;;;;;;;;5023989;28;20453;-96
2021/05/10 07:15:28;;;;;;;13.80;9.33;;;;;;;;;;5034525;28;20459;-95
2021/05/10 07:18:04;;;;;;;14.73;8.53;;;;;;;;;;5034910;28;20479;-96
2021/05/10 07:20:30;;;;;;;9.33;8.33;;;;;;;;;;5019843;28;20563;-96
2021/05/10 07:23:00;;;;;;;11.93;8.80;;;;;;;;;;5009804;28;20453;-96
2021/05/10 07:25:26;;;;;;;9.77;8.50;;;;;;;;;;5035416;23;20929;-96
2021/05/10 07:27:53;;;;;;;11.10;7.93;;;;;;;;;;5034005;28;20436;-96
2021/05/10 07:30:20;;;;;;;8.73;7.77;;;;;;;;;;5011494;28;20448;-96
2021/05/10 07:32:46;;;;;;;9.53;8.13;;;;;;;;;;5023753;28;20468;-96
2021/05/10 07:35:12;;;;;;;8.80;7.90;;;;;;;;;;5022446;28;20448;-96
2021/05/10 07:37:39;;;;;;;9.93;7.83;;;;;;;;;;5024775;28;20456;-96
2021/05/10 07:40:07;;;;;;;8.57;7.80;;;;;;;;;;5025048;28;20507;-95
2021/05/10 07:42:34;;;;;;;8.40;7.57;;;;;;;;;;5024979;28;20480;-96
2021/05/10 07:45:00;;;;;;;7.47;6.77;;;;;;;;;;5011698;28;21025;-94
2021/05/10 07:47:29;;;;;;;7.57;6.83;;;;;;;;;;5030042;28;20460;-96
2021/05/10 07:49:57;;;;;;;10.20;7.33;;;;;;;;;;5026306;28;20586;-96
2021/05/10 07:52:23;;;;;;;15.37;8.20;;;;;;;;;;5022443;28;20460;-95
2021/05/10 07:54:49;;;;;;;8.13;7.40;;;;;;;;;;5025820;28;20464;-95
2021/05/10 07:57:16;;;;;;;12.60;6.83;;;;;;;;;;5021066;28;20464;-96
2021/05/10 07:59:43;;;;;;;11.77;7.97;;;;;;;;;;5022661;28;20477;-95
2021/05/10 08:02:09;;;;;;;8.10;7.30;;;;;;;;;;5019430;28;20456;-95
2021/05/10 08:04:35;;;;;;;7.87;7.17;;;;;;;;;;5035740;23;20506;-96
2021/05/10 08:07:01;;;;;;;10.20;7.83;;;;;;;;;;5028489;28;20446;-95
2021/05/10 08:09:27;;;;;;;8.43;7.63;;;;;;;;;;5006678;28;20464;-96
2021/05/10 08:11:53;;;;;;;9.30;7.60;;;;;;;;;;5021922;28;21228;-94
2021/05/10 08:14:20;;;;;;;10.33;8.50;;;;;;;;;;5023317;28;20481;-96
2021/05/10 08:16:48;;;;;;;10.30;7.67;;;;;;;;;;5022085;28;20467;-95
2021/05/10 08:19:14;;;;;;;8.40;7.03;;;;;;;;;;5022935;28;20467;-95
2021/05/10 08:21:40;;;;;;;11.90;8.23;;;;;;;;;;5020632;28;20493;-96
2021/05/10 08:24:07;;;;;;;8.00;7.20;;;;;;;;;;5022399;28;20455;-96
2021/05/10 08:26:33;;;;;;;7.70;7.03;;;;;;;;;;5021830;28;20487;-96
2021/05/10 08:28:59;;;;;;;9.00;7.47;;;;;;;;;;5027812;28;20451;-96
2021/05/10 08:31:26;;;;;;;11.37;7.83;;;;;;;;;;5011001;28;20463;-96
2021/05/10 08:33:52;;;;;;;8.20;7.40;;;;;;;;;;5022658;28;20467;-95
2021/05/10 08:36:18;;;;;;;9.97;7.30;;;;;;;;;;5023110;28;20448;-96
2021/05/10 08:38:44;;;;;;;8.10;7.40;;;;;;;;;;5020660;28;20462;-96
2021/05/10 08:41:10;;;;;;;8.40;7.70;;;;;;;;;;5021900;28;20506;-96
2021/05/10 08:43:37;;;;;;;8.00;7.30;;;;;;;;;;5019773;28;20540;-96
2021/05/10 08:46:05;;;;;;;8.77;8.07;;;;;;;;;;5021782;28;21387;-96
2021/05/10 08:48:33;;;;;;;8.20;7.50;;;;;;;;;;5043895;23;20526;-95
2021/05/10 08:51:01;;;;;;;8.60;7.60;;;;;;;;;;5025109;28;20451;-96
2021/05/10 08:53:35;;;;;;;9.10;8.17;;;;;;;;;;5013103;28;20467;-96
2021/05/10 08:56:01;;;;;;;8.20;7.50;;;;;;;;;;5029673;28;20514;-93
2021/05/10 08:58:28;;;;;;;8.00;7.27;;;;;;;;;;5022577;28;20460;-94
2021/05/10 09:00:54;;;;;;;8.80;8.00;;;;;;;;;;5024150;28;20523;-95
2021/05/10 09:03:20;;;;;;;8.90;8.10;;;;;;;;;;5022811;28;20471;-96
2021/05/10 09:05:48;;;;;;;8.80;8.00;;;;;;;;;;5023228;28;20455;-95
2021/05/10 09:08:14;;;;;;;7.87;7.27;;;;;;;;;;5026440;28;20464;-96
2021/05/10 09:10:41;;;;;;;8.67;7.90;;;;;;;;;;5029237;28;20451;-96
2021/05/10 09:13:07;;;;;;;7.97;7.17;;;;;;;;;;4997687;23;20489;-96
2021/05/10 09:18:12;;;;;;;8.70;7.80;;;;;;;;;;5418503;23;20475;-96
2021/05/10 09:20:44;;;;;;;10.33;7.90;;;;;;;;;;5012003;23;20499;-96
2021/05/10 09:23:14;;;;;;;7.70;7.00;;;;;;;;;;5027162;23;20472;-96
2021/05/10 09:25:55;;;;;;;8.63;7.57;;;;;;;;;;5150906;23;20502;-96
2021/05/10 09:28:26;;;;;;;7.90;7.20;;;;;;;;;;5044317;23;21110;-96
2021/05/10 09:31:02;;;;;;;7.00;6.40;;;;;;;;;;5039420;23;20808;-96
2021/05/10 09:36:38;;;;;;;7.77;7.07;;;;;;;;;;5623141;23;20486;-96
2021/05/10 09:39:08;;;;;;;8.27;7.50;;;;;;;;;;5031115;28;20519;-96
2021/05/10 09:41:57;;;;;;;8.00;6.60;;;;;;;;;;5032798;28;20467;-96
2021/05/10 09:44:43;;;;;;;7.13;6.53;;;;;;;;;;5118404;23;20540;-96
2021/05/10 09:47:10;;;;;;;7.23;6.63;;;;;;;;;;5030911;28;20452;-96
2021/05/10 09:49:43;;;;;;;10.17;7.70;;;;;;;;;;5026262;28;20457;-96
2021/05/10 09:52:22;;;;;;;7.73;6.93;;;;;;;;;;5027688;28;20504;-94
2021/05/10 09:54:54;;;;;;;9.73;7.40;;;;;;;;;;5028092;28;20945;-96
2021/05/10 09:57:20;;;;;;;8.30;7.37;;;;;;;;;;5024903;28;20511;-96
2021/05/10 10:00:01;;;;;;;7.40;6.80;;;;;;;;;;5032447;28;20470;-97
2021/05/10 10:05:03;;;;;;;7.30;6.80;;;;;;;;;;4982942;28;20594;-96
2021/05/10 10:07:29;;;;;;;6.33;5.73;;;;;;;;;;4984917;28;20462;-96
2021/05/10 10:09:57;;;;;;;7.37;6.70;;;;;;;;;;4985722;28;20481;-96
2021/05/10 10:12:41;;;;;;;6.70;6.10;;;;;;;;;;4982886;28;20466;-96
2021/05/10 10:15:07;;;;;;;8.27;7.47;;;;;;;;;;4987334;28;20485;-96
2021/05/10 10:17:34;;;;;;;8.47;7.77;;;;;;;;;;4986641;28;20440;-96
2021/05/10 10:20:04;;;;;;;8.97;7.20;;;;;;;;;;4980785;28;20470;-94
2021/05/10 10:22:30;;;;;;;6.93;6.53;;;;;;;;;;4970585;28;20454;-95
2021/05/10 10:24:58;;;;;;;8.53;7.13;;;;;;;;;;4971806;28;20457;-96
2021/05/10 10:27:25;;;;;;;8.60;7.20;;;;;;;;;;4987311;28;20462;-96
2021/05/10 10:29:51;;;;;;;7.87;7.20;;;;;;;;;;4985598;28;20450;-95
2021/05/10 10:32:20;;;;;;;6.90;6.40;;;;;;;;;;4989311;28;20437;-95
2021/05/10 10:34:58;;;;;;;6.60;6.10;;;;;;;;;;4989850;28;20441;-96
2021/05/10 10:37:30;;;;;;;9.93;7.07;;;;;;;;;;4990870;28;20418;-96
2021/05/10 10:40:15;;;;;;;6.40;5.90;;;;;;;;;;4973768;28;20497;-96
2021/05/10 10:42:45;;;;;;;6.43;5.80;;;;;;;;;;4990226;28;20452;-96
2021/05/10 10:45:12;;;;;;;6.80;6.10;;;;;;;;;;4993405;28;20474;-95
2021/05/10 10:47:43;;;;;;;6.27;5.77;;;;;;;;;;4986604;28;20488;-96
2021/05/10 10:53:11;;;;;;;6.90;6.40;;;;;;;;;;4998189;23;20498;-95
2021/05/10 10:55:53;;;;;;;6.60;6.10;;;;;;;;;;5004885;28;20587;-95
2021/05/10 10:58:20;;;;;;;6.67;6.20;;;;;;;;;;5007913;28;20448;-95
2021/05/10 11:00:59;;;;;;;6.50;6.00;;;;;;;;;;5015434;28;20488;-96
2021/05/10 11:03:26;;;;;;;6.20;5.70;;;;;;;;;;5005553;28;20506;-96
2021/05/10 11:06:26;;;;;;;6.40;5.90;;;;;;;;;;5003494;28;20464;-96
2021/05/10 11:08:53;;;;;;;6.80;6.20;;;;;;;;;;5009301;28;20452;-96
2021/05/10 11:13:51;;;;;;;5.77;5.30;;;;;;;;;;5028833;23;21258;-96
2021/05/10 11:16:20;;;;;;;5.80;5.30;;;;;;;;;;5029625;23;20483;-96
2021/05/10 11:18:48;;;;;;;8.10;5.63;;;;;;;;;;4990383;28;20449;-96
2021/05/10 11:21:32;;;;;;;6.30;5.80;;;;;;;;;;5001372;28;20492;-95
2021/05/10 11:23:59;;;;;;;5.87;5.47;;;;;;;;;;5000343;28;20440;-95
2021/05/10 11:26:39;;;;;;;6.17;5.60;;;;;;;;;;5005684;28;20469;-95
2021/05/10 11:29:07;;;;;;;5.17;4.77;;;;;;;;;;4989661;28;20445;-95
2021/05/10 11:31:36;;;;;;;5.97;5.47;;;;;;;;;;5006405;28;20465;-96
2021/05/10 11:34:12;;;;;;;5.90;5.50;;;;;;;;;;5008159;28;20531;-94
2021/05/10 11:36:39;;;;;;;4.63;4.23;;;;;;;;;;5005031;28;20472;-96
2021/05/10 11:41:58;;;;;;;5.43;4.50;;;;;;;;;;5048120;23;20559;-94
2021/05/10 11:44:26;;;;;;;7.20;4.60;;;;;;;;;;5025220;28;20455;-96
2021/05/10 11:46:53;;;;;;;4.60;4.10;;;;;;;;;;5025533;28;20436;-96
2021/05/10 11:49:30;;;;;;;4.03;3.73;;;;;;;;;;5030979;28;20984;-96
2021/05/10 11:51:58;;;;;;;3.90;3.60;;;;;;;;;;5037749;23;20487;-96
2021/05/10 11:56:56;;;;;;;3.77;3.47;;;;;;;;;;5039794;23;20476;-96
2021/05/10 12:02:13;;;;;;;4.20;3.90;;;;;;;;;;5027567;28;20472;-93
2021/05/10 12:04:40;;;;;;;4.17;3.77;;;;;;;;;;5038095;28;20498;-96
2021/05/10 12:12:33;;;;;;;4.77;4.37;;;;;;;;;;5008317;28;20532;-95
2021/05/10 12:15:10;;;;;;;4.70;4.30;;;;;;;;;;5021049;23;20504;-96
2021/05/10 12:17:39;;;;;;;5.17;4.40;;;;;;;;;;4985345;28;20503;-96
2021/05/10 12:20:07;;;;;;;4.60;4.30;;;;;;;;;;5007697;28;20484;-95
2021/05/10 12:22:39;;;;;;;4.60;3.50;;;;;;;;;;5004474;28;20464;-96
2021/05/10 12:25:26;;;;;;;4.30;4.00;;;;;;;;;;5005535;28;20453;-96
2021/05/10 12:28:03;;;;;;;3.30;3.10;;;;;;;;;;5010650;28;20464;-95
2021/05/10 12:30:30;;;;;;;4.13;3.83;;;;;;;;;;5007110;28;20504;-95
2021/05/10 12:33:12;;;;;;;4.37;3.97;;;;;;;;;;5011343;28;20440;-96
2021/05/10 12:35:39;;;;;;;4.53;3.90;;;;;;;;;;5009690;28;20459;-96
2021/05/10 12:38:05;;;;;;;4.47;4.10;;;;;;;;;;5005700;28;20460;-96
2021/05/10 12:40:50;;;;;;;4.60;4.10;;;;;;;;;;5014112;28;20559;-96
2021/05/10 12:43:19;;;;;;;4.20;4.00;;;;;;;;;;5005568;28;20468;-96
2021/05/10 12:45:48;;;;;;;4.33;4.03;;;;;;;;;;5037960;23;20511;-96
2021/05/10 12:48:17;;;;;;;4.33;4.03;;;;;;;;;;4982134;28;21013;-96
2021/05/10 12:53:36;;;;;;;3.77;3.57;;;;;;;;;;4994999;28;20537;-96
2021/05/10 12:56:04;;;;;;;3.87;3.50;;;;;;;;;;4985042;28;20449;-96
2021/05/10 12:58:33;;;;;;;3.80;3.60;;;;;;;;;;4997617;28;20443;-95
2021/05/10 13:01:09;;;;;;;4.50;4.10;;;;;;;;;;4989188;28;20485;-94
2021/05/10 13:03:38;;;;;;;5.80;3.90;;;;;;;;;;4987979;28;20449;-96
2021/05/10 13:11:42;;;;;;;4.20;3.90;;;;;;;;;;5028273;28;20452;-96
2021/05/10 13:14:35;;;;;;;3.50;3.20;;;;;;;;;;5022628;28;20436;-96
2021/05/10 13:19:59;;;;;;;6.43;2.90;;;;;;;;;;4960975;26;20492;-96
2021/05/10 13:31:06;;;;;;;4.10;3.90;;;;;;;;;;5009164;28;20429;-94
2021/05/10 13:33:37;;;;;;;4.43;3.83;;;;;;;;;;5024564;28;20456;-93
2021/05/10 13:36:06;;;;;;;4.17;3.87;;;;;;;;;;5003730;28;20499;-93
2021/05/10 13:38:32;;;;;;;7.47;3.60;;;;;;;;;;5005526;28;21087;-95
2021/05/10 13:41:02;;;;;;;4.00;3.70;;;;;;;;;;5017808;23;20493;-94
2021/05/10 13:43:32;;;;;;;4.63;4.23;;;;;;;;;;4988552;28;20481;-95
2021/05/10 13:45:59;;;;;;;4.40;4.10;;;;;;;;;;4982103;28;20466;-93
2021/05/10 13:48:25;;;;;;;4.50;4.10;;;;;;;;;;4984842;28;20470;-93
2021/05/10 13:50:51;;;;;;;4.80;4.47;;;;;;;;;;4989966;28;20475;-93
2021/05/10 13:53:18;;;;;;;3.77;3.50;;;;;;;;;;4993954;28;20457;-94
2021/05/10 13:55:44;;;;;;;4.63;4.40;;;;;;;;;;4986737;28;20465;-96
2021/05/10 13:58:10;;;;;;;5.17;4.20;;;;;;;;;;4994639;28;20475;-95
2021/05/10 14:01:04;;;;;;;4.80;4.40;;;;;;;;;;4997559;28;20465;-96
2021/05/10 14:03:30;;;;;;;7.77;4.53;;;;;;;;;;4989898;28;20445;-96
2021/05/10 14:05:57;;;;;;;4.70;4.40;;;;;;;;;;4997353;28;20449;-96
2021/05/10 14:08:55;;;;;;;4.53;4.23;;;;;;;;;;4948211;29;20450;-96
2021/05/10 14:11:22;;;;;;;5.27;4.80;;;;;;;;;;4985521;28;20477;-96
2021/05/10 14:16:57;;;;;;;6.40;5.00;;;;;;;;;;5183433;23;20490;-96
2021/05/10 14:19:23;;;;;;;5.33;4.90;;;;;;;;;;5033594;28;20431;-96
2021/05/10 14:22:02;;;;;;;5.20;4.70;;;;;;;;;;5036073;28;20522;-96
2021/05/10 14:24:28;;;;;;;5.40;5.00;;;;;;;;;;5016604;28;20469;-95
2021/05/10 14:26:57;;;;;;;5.60;5.10;;;;;;;;;;5028991;28;20456;-95
2021/05/10 14:29:24;;;;;;;5.50;5.00;;;;;;;;;;5013651;28;20452;-96
2021/05/10 14:31:50;;;;;;;5.37;4.97;;;;;;;;;;5029375;28;20456;-94
2021/05/10 14:34:16;;;;;;;5.87;5.40;;;;;;;;;;5009230;28;20451;-96
2021/05/10 14:39:28;;;;;;;6.47;5.77;;;;;;;;;;5029128;28;20519;-94
2021/05/10 14:41:55;;;;;;;5.60;5.10;;;;;;;;;;5029857;28;20475;-96
2021/05/10 14:44:22;;;;;;;6.10;5.70;;;;;;;;;;5030219;28;20435;-95
2021/05/10 14:46:48;;;;;;;5.73;5.33;;;;;;;;;;5027127;28;20455;-96
2021/05/10 14:49:14;;;;;;;6.20;5.60;;;;;;;;;;5030121;28;20482;-95
2021/05/10 14:51:40;;;;;;;6.47;4.60;;;;;;;;;;5029374;28;20448;-95
2021/05/10 14:54:08;;;;;;;5.70;5.30;;;;;;;;;;5025003;28;20460;-96
2021/05/10 14:56:35;;;;;;;6.37;5.03;;;;;;;;;;5031597;28;20453;-95
2021/05/10 14:59:08;;;;;;;6.03;5.47;;;;;;;;;;5034532;28;20838;-95
2021/05/10 15:01:36;;;;;;;5.20;4.70;;;;;;;;;;5013661;28;20554;-95
2021/05/10 15:04:02;;;;;;;5.07;4.67;;;;;;;;;;5029969;28;20531;-96
2021/05/10 15:06:28;;;;;;;5.67;5.10;;;;;;;;;;5030771;28;20472;-96
2021/05/10 15:08:55;;;;;;;6.17;5.67;;;;;;;;;;5010739;28;20442;-96
2021/05/10 15:11:23;;;;;;;5.30;4.90;;;;;;;;;;5023246;28;20808;-96
2021/05/10 15:13:52;;;;;;;5.77;4.80;;;;;;;;;;5021629;28;20464;-96
2021/05/10 15:16:19;;;;;;;5.50;5.00;;;;;;;;;;5008363;28;20486;-96
2021/05/10 15:18:48;;;;;;;7.50;5.13;;;;;;;;;;5030924;28;20483;-96
2021/05/10 15:21:14;;;;;;;5.47;4.93;;;;;;;;;;5014463;28;20506;-94
2021/05/10 15:23:40;;;;;;;5.20;4.70;;;;;;;;;;5007095;28;20448;-95
2021/05/10 15:26:06;;;;;;;5.17;4.60;;;;;;;;;;5114983;23;20568;-96
2021/05/10 15:28:37;;;;;;;5.83;5.20;;;;;;;;;;5027615;28;20452;-95
2021/05/10 15:31:07;;;;;;;5.83;5.13;;;;;;;;;;5026930;28;20527;-96
2021/05/10 15:33:34;;;;;;;6.60;5.30;;;;;;;;;;5108305;23;20502;-96
2021/05/10 15:36:00;;;;;;;5.20;4.80;;;;;;;;;;5006849;28;20999;-96